METAR Data
IDs: Format: Raw Decoded Include TAF

Data at: 0302 UTC 24 Jun 2021

METAR for:KLCK (Rickenbacker AFB, OH, US)
Text:KLCK 240255Z AUTO 11003KT 10SM CLR 18/10 A3019 RMK AO2 T01810102
Temperature: 18.1°C ( 65°F)
Dewpoint: 10.2°C ( 50°F) [RH = 60%]
Pressure (altimeter):30.19 inches Hg (1022.4 mb)
Winds:from the ESE (110 degrees) at 3 MPH (3 knots; 1.5 m/s)
Visibility:10 or more sm (16+ km)
Ceiling:at least 12,000 feet AGL
Clouds:sky clear below 12,000 feet AGL
QC Flag:automated observation with no human augmentation